sensor_id;sensor_type;location;lat;lon;timestamp;temperature;humidity
78649;DHT22;67962;47.310;9.642;2023-12-29T00:00:41;7.50;66.40
78649;DHT22;67962;47.310;9.642;2023-12-29T00:03:07;7.50;66.90
78649;DHT22;67962;47.310;9.642;2023-12-29T00:05:32;7.40;67.30
78649;DHT22;67962;47.310;9.642;2023-12-29T00:07:58;7.40;67.50
78649;DHT22;67962;47.310;9.642;2023-12-29T00:10:24;7.30;67.60
78649;DHT22;67962;47.310;9.642;2023-12-29T00:12:49;7.20;67.70
78649;DHT22;67962;47.310;9.642;2023-12-29T00:15:18;7.10;67.80
78649;DHT22;67962;47.310;9.642;2023-12-29T00:17:44;7.00;67.60
78649;DHT22;67962;47.310;9.642;2023-12-29T00:20:12;7.10;67.90
78649;DHT22;67962;47.310;9.642;2023-12-29T00:22:38;7.10;67.50
78649;DHT22;67962;47.310;9.642;2023-12-29T00:25:04;7.00;67.50
78649;DHT22;67962;47.310;9.642;2023-12-29T00:27:29;6.90;67.80
78649;DHT22;67962;47.310;9.642;2023-12-29T00:29:55;6.90;68.00
78649;DHT22;67962;47.310;9.642;2023-12-29T00:32:21;6.90;67.70
78649;DHT22;67962;47.310;9.642;2023-12-29T00:34:46;6.80;67.70
78649;DHT22;67962;47.310;9.642;2023-12-29T00:37:12;6.80;67.90
78649;DHT22;67962;47.310;9.642;2023-12-29T00:39:38;6.90;67.50
78649;DHT22;67962;47.310;9.642;2023-12-29T00:42:04;6.80;67.40
78649;DHT22;67962;47.310;9.642;2023-12-29T00:44:31;6.90;67.60
78649;DHT22;67962;47.310;9.642;2023-12-29T00:46:57;7.00;67.70
78649;DHT22;67962;47.310;9.642;2023-12-29T00:49:23;7.10;67.70
78649;DHT22;67962;47.310;9.642;2023-12-29T00:51:48;7.00;67.60
78649;DHT22;67962;47.310;9.642;2023-12-29T00:54:14;7.00;67.80
78649;DHT22;67962;47.310;9.642;2023-12-29T00:56:41;6.90;68.00
78649;DHT22;67962;47.310;9.642;2023-12-29T00:59:06;6.90;68.20
78649;DHT22;67962;47.310;9.642;2023-12-29T01:01:35;6.80;68.60
78649;DHT22;67962;47.310;9.642;2023-12-29T01:04:02;6.80;68.90
78649;DHT22;67962;47.310;9.642;2023-12-29T01:06:28;6.80;68.50
78649;DHT22;67962;47.310;9.642;2023-12-29T01:08:53;6.90;68.70
78649;DHT22;67962;47.310;9.642;2023-12-29T01:11:19;6.90;68.70
78649;DHT22;67962;47.310;9.642;2023-12-29T01:13:45;7.00;68.80
78649;DHT22;67962;47.310;9.642;2023-12-29T01:16:10;7.10;68.90
78649;DHT22;67962;47.310;9.642;2023-12-29T01:18:36;7.10;68.90
78649;DHT22;67962;47.310;9.642;2023-12-29T01:21:02;7.10;68.80
78649;DHT22;67962;47.310;9.642;2023-12-29T01:23:28;7.10;68.80
78649;DHT22;67962;47.310;9.642;2023-12-29T01:25:53;7.10;68.30
78649;DHT22;67962;47.310;9.642;2023-12-29T01:28:19;7.20;67.70
78649;DHT22;67962;47.310;9.642;2023-12-29T01:30:45;7.20;67.70
78649;DHT22;67962;47.310;9.642;2023-12-29T01:33:10;7.30;67.60
78649;DHT22;67962;47.310;9.642;2023-12-29T01:35:36;7.40;67.50
78649;DHT22;67962;47.310;9.642;2023-12-29T01:38:02;7.40;67.00
78649;DHT22;67962;47.310;9.642;2023-12-29T01:40:28;7.50;67.00
78649;DHT22;67962;47.310;9.642;2023-12-29T01:42:54;7.50;66.40
78649;DHT22;67962;47.310;9.642;2023-12-29T01:45:24;7.50;65.70
78649;DHT22;67962;47.310;9.642;2023-12-29T01:47:51;7.60;64.10
78649;DHT22;67962;47.310;9.642;2023-12-29T01:50:21;7.70;63.90
78649;DHT22;67962;47.310;9.642;2023-12-29T01:52:49;7.70;64.30
78649;DHT22;67962;47.310;9.642;2023-12-29T01:55:18;7.80;64.40
78649;DHT22;67962;47.310;9.642;2023-12-29T01:57:45;7.80;63.90
78649;DHT22;67962;47.310;9.642;2023-12-29T02:00:12;7.90;64.10
78649;DHT22;67962;47.310;9.642;2023-12-29T02:02:39;8.00;63.70
78649;DHT22;67962;47.310;9.642;2023-12-29T02:05:05;8.00;63.90
78649;DHT22;67962;47.310;9.642;2023-12-29T02:07:32;8.10;64.40
78649;DHT22;67962;47.310;9.642;2023-12-29T02:09:58;8.00;65.00
78649;DHT22;67962;47.310;9.642;2023-12-29T02:12:25;7.90;64.40
78649;DHT22;67962;47.310;9.642;2023-12-29T02:14:51;7.90;64.50
78649;DHT22;67962;47.310;9.642;2023-12-29T02:17:28;7.90;64.90
78649;DHT22;67962;47.310;9.642;2023-12-29T02:19:57;7.90;64.60
78649;DHT22;67962;47.310;9.642;2023-12-29T02:22:22;7.90;64.20
78649;DHT22;67962;47.310;9.642;2023-12-29T02:24:49;8.00;64.50
78649;DHT22;67962;47.310;9.642;2023-12-29T02:30:29;8.00;63.30
78649;DHT22;67962;47.310;9.642;2023-12-29T02:33:01;8.10;63.30
78649;DHT22;67962;47.310;9.642;2023-12-29T02:35:28;8.20;63.00
78649;DHT22;67962;47.310;9.642;2023-12-29T02:37:57;8.20;62.80
78649;DHT22;67962;47.310;9.642;2023-12-29T02:40:25;8.20;62.60
78649;DHT22;67962;47.310;9.642;2023-12-29T02:42:50;8.20;62.50
78649;DHT22;67962;47.310;9.642;2023-12-29T02:45:17;8.20;62.40
78649;DHT22;67962;47.310;9.642;2023-12-29T02:47:43;8.20;62.30
78649;DHT22;67962;47.310;9.642;2023-12-29T02:50:09;8.30;62.60
78649;DHT22;67962;47.310;9.642;2023-12-29T02:52:35;8.30;62.50
78649;DHT22;67962;47.310;9.642;2023-12-29T02:55:01;8.30;62.50
78649;DHT22;67962;47.310;9.642;2023-12-29T02:57:27;8.20;63.20
78649;DHT22;67962;47.310;9.642;2023-12-29T02:59:52;8.20;63.40
78649;DHT22;67962;47.310;9.642;2023-12-29T03:02:18;8.20;63.50
78649;DHT22;67962;47.310;9.642;2023-12-29T03:04:44;8.10;63.30
78649;DHT22;67962;47.310;9.642;2023-12-29T03:07:10;8.00;63.70
78649;DHT22;67962;47.310;9.642;2023-12-29T03:09:36;7.90;63.70
78649;DHT22;67962;47.310;9.642;2023-12-29T03:12:03;7.80;64.10
78649;DHT22;67962;47.310;9.642;2023-12-29T03:14:28;7.70;64.30
78649;DHT22;67962;47.310;9.642;2023-12-29T03:16:54;7.60;64.70
78649;DHT22;67962;47.310;9.642;2023-12-29T03:19:20;7.70;65.40
78649;DHT22;67962;47.310;9.642;2023-12-29T03:21:46;7.60;65.00
78649;DHT22;67962;47.310;9.642;2023-12-29T03:24:12;7.50;65.30
78649;DHT22;67962;47.310;9.642;2023-12-29T03:26:37;7.60;64.50
78649;DHT22;67962;47.310;9.642;2023-12-29T03:29:04;7.60;64.10
78649;DHT22;67962;47.310;9.642;2023-12-29T03:31:30;7.80;64.40
78649;DHT22;67962;47.310;9.642;2023-12-29T03:33:55;7.70;64.50
78649;DHT22;67962;47.310;9.642;2023-12-29T03:36:21;7.70;65.00
78649;DHT22;67962;47.310;9.642;2023-12-29T03:38:47;7.70;66.10
78649;DHT22;67962;47.310;9.642;2023-12-29T03:41:12;7.60;65.20
78649;DHT22;67962;47.310;9.642;2023-12-29T03:43:38;7.60;65.10
78649;DHT22;67962;47.310;9.642;2023-12-29T03:46:17;7.70;64.90
78649;DHT22;67962;47.310;9.642;2023-12-29T03:48:43;7.80;64.60
78649;DHT22;67962;47.310;9.642;2023-12-29T03:51:09;7.80;64.40
78649;DHT22;67962;47.310;9.642;2023-12-29T03:53:35;7.70;64.50
78649;DHT22;67962;47.310;9.642;2023-12-29T03:56:05;7.80;65.00
78649;DHT22;67962;47.310;9.642;2023-12-29T03:58:30;7.70;64.90
78649;DHT22;67962;47.310;9.642;2023-12-29T04:00:56;7.70;65.40
78649;DHT22;67962;47.310;9.642;2023-12-29T04:03:22;7.70;65.50
78649;DHT22;67962;47.310;9.642;2023-12-29T04:05:47;7.60;65.60
78649;DHT22;67962;47.310;9.642;2023-12-29T04:08:13;7.50;66.00
78649;DHT22;67962;47.310;9.642;2023-12-29T04:10:38;7.50;66.80
78649;DHT22;67962;47.310;9.642;2023-12-29T04:13:04;7.50;65.60
78649;DHT22;67962;47.310;9.642;2023-12-29T04:15:30;7.40;65.30
78649;DHT22;67962;47.310;9.642;2023-12-29T04:17:56;7.40;65.30
78649;DHT22;67962;47.310;9.642;2023-12-29T04:20:21;7.30;65.50
78649;DHT22;67962;47.310;9.642;2023-12-29T04:22:47;7.20;65.60
78649;DHT22;67962;47.310;9.642;2023-12-29T04:25:13;7.20;65.70
78649;DHT22;67962;47.310;9.642;2023-12-29T04:27:40;7.10;65.70
78649;DHT22;67962;47.310;9.642;2023-12-29T04:30:06;7.10;66.00
78649;DHT22;67962;47.310;9.642;2023-12-29T04:32:32;7.20;65.90
78649;DHT22;67962;47.310;9.642;2023-12-29T04:34:58;7.30;65.70
78649;DHT22;67962;47.310;9.642;2023-12-29T04:37:23;7.20;65.70
78649;DHT22;67962;47.310;9.642;2023-12-29T04:39:49;7.20;65.70
78649;DHT22;67962;47.310;9.642;2023-12-29T04:42:15;7.30;65.70
78649;DHT22;67962;47.310;9.642;2023-12-29T04:44:41;7.40;65.60
78649;DHT22;67962;47.310;9.642;2023-12-29T04:47:06;7.40;65.10
78649;DHT22;67962;47.310;9.642;2023-12-29T04:49:33;7.50;65.10
78649;DHT22;67962;47.310;9.642;2023-12-29T04:51:58;7.50;64.70
78649;DHT22;67962;47.310;9.642;2023-12-29T04:54:24;7.50;63.90
78649;DHT22;67962;47.310;9.642;2023-12-29T04:56:50;7.60;64.30
78649;DHT22;67962;47.310;9.642;2023-12-29T04:59:16;7.60;64.40
78649;DHT22;67962;47.310;9.642;2023-12-29T05:01:41;7.60;64.60
78649;DHT22;67962;47.310;9.642;2023-12-29T05:04:07;7.60;64.70
78649;DHT22;67962;47.310;9.642;2023-12-29T05:06:33;7.60;65.00
78649;DHT22;67962;47.310;9.642;2023-12-29T05:08:58;7.50;65.20
78649;DHT22;67962;47.310;9.642;2023-12-29T05:11:24;7.50;65.30
78649;DHT22;67962;47.310;9.642;2023-12-29T05:13:50;7.50;65.60
78649;DHT22;67962;47.310;9.642;2023-12-29T05:16:15;7.60;65.60
78649;DHT22;67962;47.310;9.642;2023-12-29T05:18:41;7.70;65.00
78649;DHT22;67962;47.310;9.642;2023-12-29T05:21:17;7.60;65.10
78649;DHT22;67962;47.310;9.642;2023-12-29T05:23:46;7.50;65.80
78649;DHT22;67962;47.310;9.642;2023-12-29T05:26:13;7.50;66.20
78649;DHT22;67962;47.310;9.642;2023-12-29T05:28:38;7.50;66.40
78649;DHT22;67962;47.310;9.642;2023-12-29T05:31:04;7.50;66.10
78649;DHT22;67962;47.310;9.642;2023-12-29T05:33:33;7.60;66.10
78649;DHT22;67962;47.310;9.642;2023-12-29T05:35:59;7.60;65.90
78649;DHT22;67962;47.310;9.642;2023-12-29T05:38:31;7.60;65.40
78649;DHT22;67962;47.310;9.642;2023-12-29T05:40:56;7.60;65.10
78649;DHT22;67962;47.310;9.642;2023-12-29T05:43:22;7.60;65.20
78649;DHT22;67962;47.310;9.642;2023-12-29T05:45:48;7.70;64.90
78649;DHT22;67962;47.310;9.642;2023-12-29T05:48:13;7.70;65.20
78649;DHT22;67962;47.310;9.642;2023-12-29T05:50:39;7.60;65.30
78649;DHT22;67962;47.310;9.642;2023-12-29T05:53:05;7.60;65.20
78649;DHT22;67962;47.310;9.642;2023-12-29T05:55:31;7.70;65.10
78649;DHT22;67962;47.310;9.642;2023-12-29T05:57:57;7.80;65.10
78649;DHT22;67962;47.310;9.642;2023-12-29T06:00:22;7.90;64.90
78649;DHT22;67962;47.310;9.642;2023-12-29T06:02:48;7.90;64.00
78649;DHT22;67962;47.310;9.642;2023-12-29T06:05:15;8.00;64.10
78649;DHT22;67962;47.310;9.642;2023-12-29T06:07:41;8.10;64.10
78649;DHT22;67962;47.310;9.642;2023-12-29T06:10:07;8.10;64.40
78649;DHT22;67962;47.310;9.642;2023-12-29T06:12:34;8.10;64.40
78649;DHT22;67962;47.310;9.642;2023-12-29T06:15:00;8.10;64.90
78649;DHT22;67962;47.310;9.642;2023-12-29T06:17:26;8.10;64.60
78649;DHT22;67962;47.310;9.642;2023-12-29T06:19:52;8.00;64.60
78649;DHT22;67962;47.310;9.642;2023-12-29T06:22:18;8.00;64.50
78649;DHT22;67962;47.310;9.642;2023-12-29T06:24:44;8.00;64.70
78649;DHT22;67962;47.310;9.642;2023-12-29T06:27:12;8.00;64.90
78649;DHT22;67962;47.310;9.642;2023-12-29T06:29:38;8.10;65.10
78649;DHT22;67962;47.310;9.642;2023-12-29T06:32:04;8.10;64.70
78649;DHT22;67962;47.310;9.642;2023-12-29T06:34:30;8.20;64.50
78649;DHT22;67962;47.310;9.642;2023-12-29T06:36:56;8.30;65.30
78649;DHT22;67962;47.310;9.642;2023-12-29T06:39:21;8.30;64.60
78649;DHT22;67962;47.310;9.642;2023-12-29T06:41:48;8.30;64.90
78649;DHT22;67962;47.310;9.642;2023-12-29T06:44:14;8.30;64.90
78649;DHT22;67962;47.310;9.642;2023-12-29T06:46:39;8.10;64.70
78649;DHT22;67962;47.310;9.642;2023-12-29T06:49:09;8.10;65.10
78649;DHT22;67962;47.310;9.642;2023-12-29T06:51:35;8.10;65.60
78649;DHT22;67962;47.310;9.642;2023-12-29T06:54:06;8.10;65.90
78649;DHT22;67962;47.310;9.642;2023-12-29T06:56:32;8.10;66.30
78649;DHT22;67962;47.310;9.642;2023-12-29T06:58:58;8.00;66.10
78649;DHT22;67962;47.310;9.642;2023-12-29T07:01:24;8.00;65.70
78649;DHT22;67962;47.310;9.642;2023-12-29T07:03:50;8.00;65.20
78649;DHT22;67962;47.310;9.642;2023-12-29T07:06:15;8.00;65.40
78649;DHT22;67962;47.310;9.642;2023-12-29T07:08:41;8.10;65.30
78649;DHT22;67962;47.310;9.642;2023-12-29T07:11:10;8.10;65.80
78649;DHT22;67962;47.310;9.642;2023-12-29T07:13:37;8.10;65.90
78649;DHT22;67962;47.310;9.642;2023-12-29T07:16:04;8.00;66.10
78649;DHT22;67962;47.310;9.642;2023-12-29T07:18:30;8.00;66.10
78649;DHT22;67962;47.310;9.642;2023-12-29T07:20:55;8.00;66.30
78649;DHT22;67962;47.310;9.642;2023-12-29T07:23:21;8.00;66.50
78649;DHT22;67962;47.310;9.642;2023-12-29T07:25:48;8.10;66.30
78649;DHT22;67962;47.310;9.642;2023-12-29T07:28:14;8.10;66.00
78649;DHT22;67962;47.310;9.642;2023-12-29T07:30:40;8.10;65.50
78649;DHT22;67962;47.310;9.642;2023-12-29T07:33:05;8.10;65.60
78649;DHT22;67962;47.310;9.642;2023-12-29T07:35:31;8.10;65.40
78649;DHT22;67962;47.310;9.642;2023-12-29T07:37:57;8.20;65.00
78649;DHT22;67962;47.310;9.642;2023-12-29T07:40:23;8.30;65.10
78649;DHT22;67962;47.310;9.642;2023-12-29T07:42:48;8.30;65.60
78649;DHT22;67962;47.310;9.642;2023-12-29T07:45:16;8.20;66.00
78649;DHT22;67962;47.310;9.642;2023-12-29T07:47:42;8.30;66.50
78649;DHT22;67962;47.310;9.642;2023-12-29T07:50:08;8.20;66.70
78649;DHT22;67962;47.310;9.642;2023-12-29T07:52:34;8.20;66.70
78649;DHT22;67962;47.310;9.642;2023-12-29T07:55:00;8.20;66.60
78649;DHT22;67962;47.310;9.642;2023-12-29T07:57:26;8.30;65.40
78649;DHT22;67962;47.310;9.642;2023-12-29T07:59:51;8.30;64.90
78649;DHT22;67962;47.310;9.642;2023-12-29T08:02:17;8.40;65.40
78649;DHT22;67962;47.310;9.642;2023-12-29T08:04:42;8.40;65.80
78649;DHT22;67962;47.310;9.642;2023-12-29T08:07:10;8.40;65.50
78649;DHT22;67962;47.310;9.642;2023-12-29T08:09:36;8.50;65.40
78649;DHT22;67962;47.310;9.642;2023-12-29T08:12:01;8.50;65.20
78649;DHT22;67962;47.310;9.642;2023-12-29T08:14:27;8.40;66.20
78649;DHT22;67962;47.310;9.642;2023-12-29T08:16:53;8.30;66.40
78649;DHT22;67962;47.310;9.642;2023-12-29T08:19:19;8.20;66.80
78649;DHT22;67962;47.310;9.642;2023-12-29T08:21:45;8.20;67.40
78649;DHT22;67962;47.310;9.642;2023-12-29T08:24:10;8.20;67.70
78649;DHT22;67962;47.310;9.642;2023-12-29T08:26:44;8.20;67.90
78649;DHT22;67962;47.310;9.642;2023-12-29T08:29:10;8.20;67.70
78649;DHT22;67962;47.310;9.642;2023-12-29T08:31:36;8.30;68.20
78649;DHT22;67962;47.310;9.642;2023-12-29T08:34:01;8.40;68.40
78649;DHT22;67962;47.310;9.642;2023-12-29T08:36:27;8.50;68.10
78649;DHT22;67962;47.310;9.642;2023-12-29T08:38:53;8.60;66.70
78649;DHT22;67962;47.310;9.642;2023-12-29T08:41:18;8.70;68.60
78649;DHT22;67962;47.310;9.642;2023-12-29T08:43:44;8.80;67.20
78649;DHT22;67962;47.310;9.642;2023-12-29T08:46:10;8.90;66.50
78649;DHT22;67962;47.310;9.642;2023-12-29T08:48:35;8.90;66.30
78649;DHT22;67962;47.310;9.642;2023-12-29T08:51:01;8.80;66.80
78649;DHT22;67962;47.310;9.642;2023-12-29T08:53:27;8.70;66.90
78649;DHT22;67962;47.310;9.642;2023-12-29T08:55:53;8.70;66.60
78649;DHT22;67962;47.310;9.642;2023-12-29T08:58:18;8.70;65.90
78649;DHT22;67962;47.310;9.642;2023-12-29T09:00:44;8.70;66.00
78649;DHT22;67962;47.310;9.642;2023-12-29T09:03:09;8.70;66.30
78649;DHT22;67962;47.310;9.642;2023-12-29T09:05:35;8.80;66.70
78649;DHT22;67962;47.310;9.642;2023-12-29T09:08:01;8.70;66.80
78649;DHT22;67962;47.310;9.642;2023-12-29T09:10:26;8.80;65.60
78649;DHT22;67962;47.310;9.642;2023-12-29T09:12:52;8.80;65.60
78649;DHT22;67962;47.310;9.642;2023-12-29T09:15:18;8.90;65.50
78649;DHT22;67962;47.310;9.642;2023-12-29T09:17:43;8.90;65.30
78649;DHT22;67962;47.310;9.642;2023-12-29T09:20:09;9.00;64.40
78649;DHT22;67962;47.310;9.642;2023-12-29T09:22:35;9.10;64.70
78649;DHT22;67962;47.310;9.642;2023-12-29T09:25:01;9.20;65.00
78649;DHT22;67962;47.310;9.642;2023-12-29T09:27:26;9.30;64.10
78649;DHT22;67962;47.310;9.642;2023-12-29T09:29:52;9.40;64.10
78649;DHT22;67962;47.310;9.642;2023-12-29T09:32:18;9.50;64.00
78649;DHT22;67962;47.310;9.642;2023-12-29T09:34:44;9.50;64.10
78649;DHT22;67962;47.310;9.642;2023-12-29T09:37:09;9.70;64.20
78649;DHT22;67962;47.310;9.642;2023-12-29T09:39:35;9.80;63.60
78649;DHT22;67962;47.310;9.642;2023-12-29T09:42:01;9.80;64.50
78649;DHT22;67962;47.310;9.642;2023-12-29T09:44:31;9.80;64.40
78649;DHT22;67962;47.310;9.642;2023-12-29T09:47:00;9.90;63.70
78649;DHT22;67962;47.310;9.642;2023-12-29T09:49:27;9.90;63.80
78649;DHT22;67962;47.310;9.642;2023-12-29T09:51:57;10.00;63.70
78649;DHT22;67962;47.310;9.642;2023-12-29T09:54:24;10.10;62.70
78649;DHT22;67962;47.310;9.642;2023-12-29T09:56:51;10.10;62.20
78649;DHT22;67962;47.310;9.642;2023-12-29T09:59:16;10.20;62.90
78649;DHT22;67962;47.310;9.642;2023-12-29T10:01:45;10.30;62.40
78649;DHT22;67962;47.310;9.642;2023-12-29T10:04:12;10.50;61.90
78649;DHT22;67962;47.310;9.642;2023-12-29T10:06:41;10.60;61.80
78649;DHT22;67962;47.310;9.642;2023-12-29T10:09:12;10.60;59.60
78649;DHT22;67962;47.310;9.642;2023-12-29T10:11:38;10.70;59.50
78649;DHT22;67962;47.310;9.642;2023-12-29T10:14:36;10.80;59.90
78649;DHT22;67962;47.310;9.642;2023-12-29T10:17:09;11.00;58.90
78649;DHT22;67962;47.310;9.642;2023-12-29T10:19:40;11.00;58.80
78649;DHT22;67962;47.310;9.642;2023-12-29T10:22:21;11.10;58.70
78649;DHT22;67962;47.310;9.642;2023-12-29T10:24:48;11.20;58.80
78649;DHT22;67962;47.310;9.642;2023-12-29T10:27:15;11.30;58.70
78649;DHT22;67962;47.310;9.642;2023-12-29T10:29:41;11.40;58.60
78649;DHT22;67962;47.310;9.642;2023-12-29T10:32:06;11.40;58.10
78649;DHT22;67962;47.310;9.642;2023-12-29T10:34:32;11.40;58.20
78649;DHT22;67962;47.310;9.642;2023-12-29T10:36:59;11.50;58.40
78649;DHT22;67962;47.310;9.642;2023-12-29T10:39:26;11.50;58.10
78649;DHT22;67962;47.310;9.642;2023-12-29T10:42:04;11.60;58.30
78649;DHT22;67962;47.310;9.642;2023-12-29T10:44:31;11.50;57.20
78649;DHT22;67962;47.310;9.642;2023-12-29T10:46:57;11.50;57.90
78649;DHT22;67962;47.310;9.642;2023-12-29T10:49:23;11.60;58.00
78649;DHT22;67962;47.310;9.642;2023-12-29T10:51:48;11.70;58.00
78649;DHT22;67962;47.310;9.642;2023-12-29T10:54:19;11.70;58.10
78649;DHT22;67962;47.310;9.642;2023-12-29T10:57:00;11.80;57.50
78649;DHT22;67962;47.310;9.642;2023-12-29T10:59:27;11.80;57.30
78649;DHT22;67962;47.310;9.642;2023-12-29T11:01:53;11.80;57.50
78649;DHT22;67962;47.310;9.642;2023-12-29T11:04:22;11.90;57.60
78649;DHT22;67962;47.310;9.642;2023-12-29T11:06:48;12.00;57.60
78649;DHT22;67962;47.310;9.642;2023-12-29T11:09:33;12.10;57.80
78649;DHT22;67962;47.310;9.642;2023-12-29T11:12:01;11.90;55.60
78649;DHT22;67962;47.310;9.642;2023-12-29T11:14:28;11.90;56.30
78649;DHT22;67962;47.310;9.642;2023-12-29T11:16:55;12.00;56.60
78649;DHT22;67962;47.310;9.642;2023-12-29T11:19:21;12.10;56.70
78649;DHT22;67962;47.310;9.642;2023-12-29T11:21:48;12.20;57.90
78649;DHT22;67962;47.310;9.642;2023-12-29T11:24:15;12.20;57.50
78649;DHT22;67962;47.310;9.642;2023-12-29T11:26:41;12.20;56.90
78649;DHT22;67962;47.310;9.642;2023-12-29T11:29:09;12.10;57.70
78649;DHT22;67962;47.310;9.642;2023-12-29T11:31:37;12.10;58.40
78649;DHT22;67962;47.310;9.642;2023-12-29T11:34:10;12.10;58.60
78649;DHT22;67962;47.310;9.642;2023-12-29T11:36:41;12.00;58.40
78649;DHT22;67962;47.310;9.642;2023-12-29T11:39:30;12.10;58.10
78649;DHT22;67962;47.310;9.642;2023-12-29T11:44:39;12.10;57.30
78649;DHT22;67962;47.310;9.642;2023-12-29T11:47:05;12.10;56.70
78649;DHT22;67962;47.310;9.642;2023-12-29T11:49:59;12.20;57.00
78649;DHT22;67962;47.310;9.642;2023-12-29T11:52:38;12.30;56.80
78649;DHT22;67962;47.310;9.642;2023-12-29T11:57:34;12.30;55.00
78649;DHT22;67962;47.310;9.642;2023-12-29T12:00:02;12.40;55.20
78649;DHT22;67962;47.310;9.642;2023-12-29T12:02:31;12.50;54.40
78649;DHT22;67962;47.310;9.642;2023-12-29T12:04:57;12.50;53.60
78649;DHT22;67962;47.310;9.642;2023-12-29T12:12:56;12.40;55.10
78649;DHT22;67962;47.310;9.642;2023-12-29T12:20:24;12.30;55.00
78649;DHT22;67962;47.310;9.642;2023-12-29T12:22:56;12.30;55.30
78649;DHT22;67962;47.310;9.642;2023-12-29T12:25:25;12.40;56.70
78649;DHT22;67962;47.310;9.642;2023-12-29T12:27:52;12.40;55.40
78649;DHT22;67962;47.310;9.642;2023-12-29T12:30:20;12.40;54.10
78649;DHT22;67962;47.310;9.642;2023-12-29T12:32:56;12.40;54.40
78649;DHT22;67962;47.310;9.642;2023-12-29T12:35:22;12.50;54.20
78649;DHT22;67962;47.310;9.642;2023-12-29T12:37:48;12.70;59.60
78649;DHT22;67962;47.310;9.642;2023-12-29T12:40:27;12.90;55.60
78649;DHT22;67962;47.310;9.642;2023-12-29T12:42:53;12.90;53.80
78649;DHT22;67962;47.310;9.642;2023-12-29T12:45:21;12.90;53.60
78649;DHT22;67962;47.310;9.642;2023-12-29T12:47:58;12.90;53.50
78649;DHT22;67962;47.310;9.642;2023-12-29T12:50:26;12.90;54.90
78649;DHT22;67962;47.310;9.642;2023-12-29T12:52:51;12.90;55.20
78649;DHT22;67962;47.310;9.642;2023-12-29T12:55:18;13.10;54.60
78649;DHT22;67962;47.310;9.642;2023-12-29T12:57:44;13.20;54.30
78649;DHT22;67962;47.310;9.642;2023-12-29T13:00:10;13.20;53.70
78649;DHT22;67962;47.310;9.642;2023-12-29T13:02:36;13.30;53.70
78649;DHT22;67962;47.310;9.642;2023-12-29T13:05:02;13.40;53.60
78649;DHT22;67962;47.310;9.642;2023-12-29T13:07:33;13.40;53.70
78649;DHT22;67962;47.310;9.642;2023-12-29T13:10:01;13.40;53.80
78649;DHT22;67962;47.310;9.642;2023-12-29T13:12:29;13.40;54.00
78649;DHT22;67962;47.310;9.642;2023-12-29T13:15:05;13.40;53.50
78649;DHT22;67962;47.310;9.642;2023-12-29T13:17:33;13.40;53.40
78649;DHT22;67962;47.310;9.642;2023-12-29T13:19:59;13.50;53.60
78649;DHT22;67962;47.310;9.642;2023-12-29T13:22:25;13.50;53.60
78649;DHT22;67962;47.310;9.642;2023-12-29T13:24:52;13.50;53.40
78649;DHT22;67962;47.310;9.642;2023-12-29T13:27:19;13.50;53.60
78649;DHT22;67962;47.310;9.642;2023-12-29T13:29:46;13.50;52.40
78649;DHT22;67962;47.310;9.642;2023-12-29T13:32:23;13.50;51.70
78649;DHT22;67962;47.310;9.642;2023-12-29T13:35:40;13.50;50.60
78649;DHT22;67962;47.310;9.642;2023-12-29T13:38:19;13.40;50.90
78649;DHT22;67962;47.310;9.642;2023-12-29T13:40:46;13.30;51.10
78649;DHT22;67962;47.310;9.642;2023-12-29T13:43:18;13.30;51.50
78649;DHT22;67962;47.310;9.642;2023-12-29T13:45:44;13.40;51.90
78649;DHT22;67962;47.310;9.642;2023-12-29T13:48:11;13.50;52.40
78649;DHT22;67962;47.310;9.642;2023-12-29T13:50:37;13.70;53.40
78649;DHT22;67962;47.310;9.642;2023-12-29T13:53:05;13.80;53.20
78649;DHT22;67962;47.310;9.642;2023-12-29T13:55:31;13.80;52.10
78649;DHT22;67962;47.310;9.642;2023-12-29T13:57:57;13.80;52.10
78649;DHT22;67962;47.310;9.642;2023-12-29T14:00:26;13.80;51.30
78649;DHT22;67962;47.310;9.642;2023-12-29T14:05:35;13.50;52.00
78649;DHT22;67962;47.310;9.642;2023-12-29T14:10:33;13.50;52.80
78649;DHT22;67962;47.310;9.642;2023-12-29T14:13:11;13.50;53.10
78649;DHT22;67962;47.310;9.642;2023-12-29T14:15:38;13.40;53.50
78649;DHT22;67962;47.310;9.642;2023-12-29T14:18:17;13.50;54.30
78649;DHT22;67962;47.310;9.642;2023-12-29T14:20:48;13.30;55.40
78649;DHT22;67962;47.310;9.642;2023-12-29T14:23:13;13.20;56.20
78649;DHT22;67962;47.310;9.642;2023-12-29T14:25:39;13.10;55.50
78649;DHT22;67962;47.310;9.642;2023-12-29T14:28:15;13.10;55.80
78649;DHT22;67962;47.310;9.642;2023-12-29T14:30:41;13.10;56.10
78649;DHT22;67962;47.310;9.642;2023-12-29T14:33:06;13.00;56.00
78649;DHT22;67962;47.310;9.642;2023-12-29T14:35:33;13.00;56.10
78649;DHT22;67962;47.310;9.642;2023-12-29T14:37:59;13.10;56.20
78649;DHT22;67962;47.310;9.642;2023-12-29T14:40:24;13.10;56.20
78649;DHT22;67962;47.310;9.642;2023-12-29T14:42:50;13.10;56.40
78649;DHT22;67962;47.310;9.642;2023-12-29T14:45:16;13.10;56.70
78649;DHT22;67962;47.310;9.642;2023-12-29T14:47:41;13.00;57.30
78649;DHT22;67962;47.310;9.642;2023-12-29T14:50:07;13.00;58.00
78649;DHT22;67962;47.310;9.642;2023-12-29T14:52:33;12.90;58.40
78649;DHT22;67962;47.310;9.642;2023-12-29T14:54:58;12.70;58.60
78649;DHT22;67962;47.310;9.642;2023-12-29T14:57:24;12.60;58.80
78649;DHT22;67962;47.310;9.642;2023-12-29T14:59:50;12.60;59.00
78649;DHT22;67962;47.310;9.642;2023-12-29T15:02:16;12.60;58.60
78649;DHT22;67962;47.310;9.642;2023-12-29T15:04:41;12.50;58.60
78649;DHT22;67962;47.310;9.642;2023-12-29T15:07:07;12.40;59.50
78649;DHT22;67962;47.310;9.642;2023-12-29T15:09:33;12.20;59.70
78649;DHT22;67962;47.310;9.642;2023-12-29T15:12:01;12.10;61.10
78649;DHT22;67962;47.310;9.642;2023-12-29T15:14:27;12.10;60.00
78649;DHT22;67962;47.310;9.642;2023-12-29T15:16:53;12.10;60.00
78649;DHT22;67962;47.310;9.642;2023-12-29T15:19:19;12.00;60.10
78649;DHT22;67962;47.310;9.642;2023-12-29T15:21:44;12.00;60.00
78649;DHT22;67962;47.310;9.642;2023-12-29T15:24:10;11.90;60.10
78649;DHT22;67962;47.310;9.642;2023-12-29T15:26:36;12.10;61.80
78649;DHT22;67962;47.310;9.642;2023-12-29T15:29:01;12.30;61.00
78649;DHT22;67962;47.310;9.642;2023-12-29T15:31:28;12.30;60.60
78649;DHT22;67962;47.310;9.642;2023-12-29T15:33:54;12.20;60.80
78649;DHT22;67962;47.310;9.642;2023-12-29T15:36:19;12.20;61.20
78649;DHT22;67962;47.310;9.642;2023-12-29T15:38:52;12.20;61.40
78649;DHT22;67962;47.310;9.642;2023-12-29T15:41:18;12.10;61.60
78649;DHT22;67962;47.310;9.642;2023-12-29T15:43:44;11.90;61.60
78649;DHT22;67962;47.310;9.642;2023-12-29T15:46:19;11.90;61.90
78649;DHT22;67962;47.310;9.642;2023-12-29T15:48:47;11.90;61.90
78649;DHT22;67962;47.310;9.642;2023-12-29T15:51:13;11.90;61.70
78649;DHT22;67962;47.310;9.642;2023-12-29T15:53:39;11.90;61.80
78649;DHT22;67962;47.310;9.642;2023-12-29T15:56:15;11.90;61.60
78649;DHT22;67962;47.310;9.642;2023-12-29T15:58:41;11.90;61.70
78649;DHT22;67962;47.310;9.642;2023-12-29T16:01:07;12.00;61.70
78649;DHT22;67962;47.310;9.642;2023-12-29T16:03:32;11.90;61.60